Time;durP1;ratioP1;P1;durP2;ratioP2;P2;SDS_P1;SDS_P2;PMS_P1;PMS_P2;Temp;Humidity;BMP_temperature;BMP_pressure;BME280_temperature;BME280_humidity;BME280_pressure;Samples;Min_cycle;Max_cycle;Signal;HPM_P1;HPM_P2
2022/07/28 00:00:15;;;;;;;3.97;3.20;;;28.00;38.20;;;;;;5024800;28;20328;-43
2022/07/28 00:02:41;;;;;;;2.67;2.47;;;27.90;38.20;;;;;;5020503;28;20240;-43
2022/07/28 00:05:07;;;;;;;2.70;2.00;;;27.90;38.30;;;;;;5013478;28;20452;-44
2022/07/28 00:07:32;;;;;;;3.80;2.40;;;27.90;38.40;;;;;;5018305;28;20514;-42
2022/07/28 00:09:58;;;;;;;2.67;2.20;;;27.90;38.40;;;;;;5029246;28;20216;-45
2022/07/28 00:12:24;;;;;;;3.30;2.30;;;27.90;38.40;;;;;;5023366;28;20261;-43
2022/07/28 00:14:49;;;;;;;2.30;2.10;;;27.90;38.20;;;;;;5017039;28;20280;-43
2022/07/28 00:17:15;;;;;;;2.93;2.30;;;27.90;38.00;;;;;;5019574;28;20201;-44
2022/07/28 00:19:40;;;;;;;4.73;2.20;;;27.90;38.10;;;;;;5026303;28;20193;-43
2022/07/28 00:22:06;;;;;;;3.23;2.13;;;27.90;38.10;;;;;;5030730;28;20602;-44
2022/07/28 00:24:32;;;;;;;3.43;2.07;;;27.80;38.00;;;;;;5023480;28;20197;-44
2022/07/28 00:26:58;;;;;;;5.03;2.20;;;27.80;38.10;;;;;;5030577;28;20197;-43
2022/07/28 00:29:25;;;;;;;5.40;2.50;;;27.70;37.80;;;;;;5015491;28;20201;-44
2022/07/28 00:31:50;;;;;;;2.70;2.00;;;27.80;38.20;;;;;;5027179;28;20539;-46
2022/07/28 00:34:16;;;;;;;3.40;2.53;;;27.70;37.90;;;;;;5027522;28;20586;-43
2022/07/28 00:36:41;;;;;;;2.97;1.90;;;27.70;38.00;;;;;;5029373;28;20233;-43
2022/07/28 00:39:07;;;;;;;3.37;2.00;;;27.70;38.20;;;;;;5026097;28;20197;-43
2022/07/28 00:41:32;;;;;;;2.83;2.50;;;27.70;38.30;;;;;;5023351;28;20233;-43
2022/07/28 00:43:58;;;;;;;2.10;1.90;;;27.70;38.30;;;;;;5030001;28;20652;-44
2022/07/28 00:46:24;;;;;;;3.87;2.10;;;27.70;38.50;;;;;;5025716;28;20200;-43
2022/07/28 00:48:53;;;;;;;3.17;2.70;;;27.70;38.90;;;;;;5025662;28;20289;-44
2022/07/28 00:51:22;;;;;;;4.83;2.60;;;27.70;39.00;;;;;;5018435;28;20272;-45
2022/07/28 00:53:48;;;;;;;2.63;2.40;;;27.60;39.20;;;;;;5038112;28;20932;-44
2022/07/28 00:56:14;;;;;;;2.37;2.17;;;27.60;39.40;;;;;;5019701;28;20441;-43
2022/07/28 00:58:40;;;;;;;3.40;3.00;;;27.50;39.60;;;;;;5025756;28;20451;-43
2022/07/28 01:01:14;;;;;;;2.70;2.40;;;27.50;39.70;;;;;;5020742;28;20305;-43
2022/07/28 01:03:42;;;;;;;3.00;2.20;;;27.40;39.70;;;;;;5024446;28;20472;-44
2022/07/28 01:06:26;;;;;;;5.90;2.53;;;27.40;39.80;;;;;;5025406;28;20527;-44
2022/07/28 01:08:57;;;;;;;2.53;2.33;;;27.40;39.80;;;;;;5026356;28;20779;-43
2022/07/28 01:11:43;;;;;;;2.87;2.57;;;27.40;39.80;;;;;;5017261;28;20447;-42
2022/07/28 01:14:16;;;;;;;3.13;2.67;;;27.40;39.90;;;;;;5022697;28;21026;-43
2022/07/28 01:17:07;;;;;;;4.13;2.40;;;27.50;39.90;;;;;;5028696;28;20448;-43
2022/07/28 01:19:42;;;;;;;2.97;2.30;;;27.40;39.70;;;;;;5024774;28;20458;-44
2022/07/28 01:22:11;;;;;;;2.40;2.10;;;27.40;39.90;;;;;;5026411;28;20522;-43
2022/07/28 01:25:27;;;;;;;2.70;2.57;;;27.40;40.00;;;;;;5027727;28;20470;-43
2022/07/28 01:28:27;;;;;;;2.50;2.27;;;27.40;40.00;;;;;;5016404;28;21015;-43
2022/07/28 01:30:56;;;;;;;4.20;3.00;;;27.40;39.70;;;;;;5027239;28;20538;-43
2022/07/28 01:33:34;;;;;;;2.70;2.33;;;27.30;39.90;;;;;;5024278;28;20448;-45
2022/07/28 01:36:10;;;;;;;2.27;2.07;;;27.30;40.00;;;;;;5030547;28;20471;-43
2022/07/28 01:38:38;;;;;;;3.63;2.20;;;27.40;40.20;;;;;;5026723;28;20958;-44
2022/07/28 01:41:08;;;;;;;4.33;2.53;;;27.30;40.20;;;;;;5027556;28;20504;-42
2022/07/28 01:43:37;;;;;;;3.93;2.70;;;27.30;40.00;;;;;;5016218;28;20445;-43
2022/07/28 01:46:05;;;;;;;4.53;2.37;;;27.30;40.00;;;;;;5026010;28;20780;-43
2022/07/28 01:48:33;;;;;;;2.93;2.67;;;27.30;40.00;;;;;;5018629;28;20978;-43
2022/07/28 01:51:01;;;;;;;2.60;2.30;;;27.30;40.20;;;;;;5024151;28;20722;-45
2022/07/28 01:53:29;;;;;;;2.50;2.30;;;27.30;40.10;;;;;;5028394;28;20439;-43
2022/07/28 01:55:57;;;;;;;3.97;2.57;;;27.20;39.90;;;;;;5030642;28;20990;-43
2022/07/28 01:58:26;;;;;;;2.83;2.20;;;27.20;40.00;;;;;;5025368;28;20531;-43
2022/07/28 02:00:53;;;;;;;2.77;2.57;;;27.20;39.90;;;;;;5026805;28;20543;-45
2022/07/28 02:03:21;;;;;;;3.93;2.10;;;27.10;40.10;;;;;;5028852;28;20578;-44
2022/07/28 02:05:51;;;;;;;7.17;2.77;;;27.10;40.50;;;;;;5024940;28;20517;-42
2022/07/28 02:08:19;;;;;;;3.97;2.80;;;27.10;40.60;;;;;;5028828;28;20442;-44
2022/07/28 02:11:38;;;;;;;4.17;2.70;;;27.00;40.50;;;;;;5018643;28;20451;-42
2022/07/28 02:13:34;;;;;;;4.60;2.70;;;27.00;40.70;;;;;;5031488;28;20448;-42
2022/07/28 02:16:03;;;;;;;2.27;1.97;;;27.00;40.70;;;;;;5030401;28;20448;-44
2022/07/28 02:18:29;;;;;;;2.93;2.63;;;27.00;40.80;;;;;;5030766;28;20439;-44
2022/07/28 02:20:56;;;;;;;3.00;2.70;;;27.00;40.80;;;;;;5027439;28;20436;-43
2022/07/28 02:23:23;;;;;;;3.77;2.67;;;27.00;40.70;;;;;;5030139;28;20610;-43
2022/07/28 02:25:50;;;;;;;5.97;2.50;;;27.00;40.80;;;;;;5031091;28;20454;-44
2022/07/28 02:28:20;;;;;;;2.50;2.30;;;26.90;40.90;;;;;;5032056;28;20448;-44
2022/07/28 02:31:15;;;;;;;2.40;2.20;;;26.80;41.30;;;;;;5030507;28;20850;-44
2022/07/28 02:33:42;;;;;;;5.37;2.97;;;26.70;41.70;;;;;;5030796;28;20471;-46
2022/07/28 02:36:24;;;;;;;2.80;2.60;;;26.60;41.60;;;;;;5023821;28;20482;-43
2022/07/28 02:38:53;;;;;;;3.87;2.97;;;26.60;41.70;;;;;;5028861;28;20447;-46
2022/07/28 02:41:27;;;;;;;2.40;2.20;;;26.60;41.70;;;;;;5022071;28;20503;-43
2022/07/28 02:43:57;;;;;;;3.07;2.47;;;26.50;41.90;;;;;;5030728;28;20444;-43
2022/07/28 02:46:25;;;;;;;9.30;2.40;;;26.50;41.80;;;;;;5021188;28;20436;-46
2022/07/28 02:49:01;;;;;;;2.63;2.43;;;26.50;41.70;;;;;;5028694;28;20444;-44
2022/07/28 02:51:28;;;;;;;4.60;2.40;;;26.50;42.60;;;;;;5030506;28;20438;-43
2022/07/28 02:53:56;;;;;;;2.80;2.47;;;26.50;41.40;;;;;;5029947;28;20444;-42
2022/07/28 02:56:22;;;;;;;3.03;2.50;;;26.50;41.00;;;;;;5033796;28;20526;-43
2022/07/28 02:58:49;;;;;;;4.13;2.53;;;26.40;41.10;;;;;;5031479;28;20864;-43
2022/07/28 03:01:19;;;;;;;4.13;2.87;;;26.30;41.80;;;;;;5028957;28;20472;-43
2022/07/28 03:03:46;;;;;;;3.80;2.60;;;26.30;42.00;;;;;;5029621;28;20436;-44
2022/07/28 03:06:14;;;;;;;4.83;2.60;;;26.20;42.20;;;;;;5026194;28;20488;-44
2022/07/28 03:08:40;;;;;;;4.87;2.70;;;26.10;42.40;;;;;;5027618;28;20431;-43
2022/07/28 03:11:07;;;;;;;2.80;2.60;;;26.10;42.50;;;;;;5031174;28;20523;-44
2022/07/28 03:13:33;;;;;;;3.70;2.80;;;26.00;42.80;;;;;;5026891;28;20192;-43
2022/07/28 03:15:58;;;;;;;3.77;2.43;;;26.00;42.80;;;;;;5024998;28;20443;-44
2022/07/28 03:18:26;;;;;;;6.30;2.80;;;26.00;42.20;;;;;;5027822;28;20603;-43
2022/07/28 03:20:52;;;;;;;4.40;2.93;;;26.00;41.80;;;;;;5028048;28;20597;-43
2022/07/28 03:23:19;;;;;;;3.87;3.17;;;25.90;42.00;;;;;;5027264;28;20498;-43
2022/07/28 03:25:50;;;;;;;3.30;2.70;;;25.90;42.50;;;;;;5023246;28;20196;-45
2022/07/28 03:28:19;;;;;;;5.73;4.37;;;25.90;42.80;;;;;;5025724;28;20451;-44
2022/07/28 03:30:50;;;;;;;6.37;5.60;;;25.80;42.80;;;;;;5028405;28;20444;-44
2022/07/28 03:33:17;;;;;;;5.10;4.60;;;25.80;42.90;;;;;;5027407;28;20439;-46
2022/07/28 03:35:47;;;;;;;3.67;3.10;;;25.70;43.10;;;;;;5018465;28;20444;-42
2022/07/28 03:38:17;;;;;;;3.63;2.70;;;25.60;43.00;;;;;;5025594;28;20475;-43
2022/07/28 03:40:45;;;;;;;3.60;3.30;;;25.60;43.00;;;;;;5026854;28;20440;-44
2022/07/28 03:43:12;;;;;;;6.60;2.83;;;25.50;43.40;;;;;;5026340;28;20436;-43
2022/07/28 03:45:40;;;;;;;4.07;2.60;;;25.50;43.40;;;;;;5026252;28;20475;-44
2022/07/28 03:48:06;;;;;;;3.10;2.80;;;25.40;43.30;;;;;;5031264;28;20435;-42
2022/07/28 03:50:33;;;;;;;2.73;2.47;;;25.40;43.50;;;;;;5018190;28;21464;-44
2022/07/28 03:53:01;;;;;;;3.10;2.80;;;25.40;43.40;;;;;;5005016;28;20224;-44
2022/07/28 03:55:27;;;;;;;3.50;3.10;;;25.40;43.60;;;;;;5022448;28;20669;-43
2022/07/28 03:57:52;;;;;;;2.97;2.73;;;25.40;43.30;;;;;;5018914;28;20533;-44
2022/07/28 04:00:19;;;;;;;4.60;3.03;;;25.40;43.50;;;;;;5030018;28;20205;-44
2022/07/28 04:02:46;;;;;;;3.13;2.83;;;25.40;43.50;;;;;;5024168;28;20228;-43
2022/07/28 04:05:13;;;;;;;4.17;3.07;;;25.50;43.90;;;;;;5026844;28;20436;-42
2022/07/28 04:07:40;;;;;;;3.23;2.63;;;25.60;43.60;;;;;;5022985;28;20455;-43
2022/07/28 04:10:08;;;;;;;3.93;3.23;;;25.50;43.40;;;;;;5019039;28;20445;-43
2022/07/28 04:12:56;;;;;;;4.93;3.13;;;25.60;43.10;;;;;;5024809;28;20448;-47
2022/07/28 04:15:23;;;;;;;4.93;3.30;;;25.60;42.90;;;;;;5026144;28;20463;-42
2022/07/28 04:17:50;;;;;;;5.80;2.73;;;25.50;43.40;;;;;;5025344;28;20439;-43
2022/07/28 04:20:17;;;;;;;3.50;3.13;;;25.50;43.30;;;;;;5030737;28;20444;-45
2022/07/28 04:22:44;;;;;;;5.10;3.53;;;25.50;43.40;;;;;;5025348;28;20483;-44
2022/07/28 04:25:13;;;;;;;3.33;3.03;;;25.50;43.40;;;;;;5023087;28;20440;-43
2022/07/28 04:27:40;;;;;;;4.90;2.50;;;25.50;43.10;;;;;;5016708;28;20487;-43
2022/07/28 04:30:12;;;;;;;4.83;3.40;;;25.50;43.40;;;;;;5026989;28;20528;-42
2022/07/28 04:32:40;;;;;;;3.30;2.93;;;25.50;43.60;;;;;;5029285;28;20982;-42
2022/07/28 04:35:07;;;;;;;3.23;2.93;;;25.60;43.50;;;;;;5029376;28;20467;-45
2022/07/28 04:37:33;;;;;;;3.03;2.70;;;25.60;43.30;;;;;;5018813;28;21037;-46
2022/07/28 04:39:59;;;;;;;3.90;2.83;;;25.60;43.50;;;;;;5024425;28;20448;-45
2022/07/28 04:42:24;;;;;;;3.70;3.10;;;25.60;43.90;;;;;;5026543;28;20235;-46
2022/07/28 04:44:50;;;;;;;2.80;2.53;;;25.60;43.40;;;;;;5027778;28;20776;-45
2022/07/28 04:47:16;;;;;;;4.00;3.30;;;25.20;44.10;;;;;;5027799;28;20197;-43
2022/07/28 04:49:42;;;;;;;3.30;3.00;;;25.10;44.60;;;;;;5027841;28;20247;-42
2022/07/28 04:52:07;;;;;;;2.63;2.43;;;25.10;44.40;;;;;;5029450;28;20200;-42
2022/07/28 04:54:34;;;;;;;3.37;3.00;;;25.20;44.30;;;;;;5028382;28;20200;-44
2022/07/28 04:57:00;;;;;;;3.07;2.87;;;25.30;44.30;;;;;;5024735;28;20189;-44
2022/07/28 04:59:26;;;;;;;5.07;3.00;;;25.40;44.00;;;;;;5026362;28;20818;-44
2022/07/28 05:01:51;;;;;;;3.47;3.17;;;25.40;43.80;;;;;;5028688;28;20676;-43
2022/07/28 05:04:17;;;;;;;5.23;3.10;;;25.50;43.60;;;;;;5026822;28;20448;-45
2022/07/28 05:06:43;;;;;;;4.80;3.27;;;25.40;43.50;;;;;;5021587;28;20677;-44
2022/07/28 05:09:09;;;;;;;4.10;3.10;;;25.30;44.10;;;;;;5023855;28;20478;-42
2022/07/28 05:11:34;;;;;;;9.57;3.50;;;25.40;44.00;;;;;;5029609;28;20312;-43
2022/07/28 05:14:00;;;;;;;9.77;3.13;;;25.20;44.30;;;;;;5020897;28;20209;-43
2022/07/28 05:16:26;;;;;;;3.80;3.03;;;25.10;44.30;;;;;;5023678;28;20198;-45
2022/07/28 05:18:51;;;;;;;3.50;3.20;;;25.20;44.60;;;;;;5018219;28;20231;-42
2022/07/28 05:21:17;;;;;;;4.33;2.90;;;25.30;44.30;;;;;;5020594;28;20222;-43
2022/07/28 05:23:42;;;;;;;3.50;3.20;;;25.40;44.20;;;;;;5019526;28;20660;-44
2022/07/28 05:26:08;;;;;;;3.33;3.03;;;25.50;44.10;;;;;;5021819;28;20189;-42
2022/07/28 05:28:34;;;;;;;3.67;3.30;;;25.60;43.80;;;;;;5021198;28;20638;-43
2022/07/28 05:30:59;;;;;;;7.93;2.83;;;25.70;43.50;;;;;;5021891;28;20263;-42
2022/07/28 05:33:25;;;;;;;3.87;3.20;;;25.80;43.30;;;;;;5017664;28;22145;-42
2022/07/28 05:35:58;;;;;;;4.00;3.03;;;25.80;42.80;;;;;;5027566;28;20197;-43
2022/07/28 05:38:24;;;;;;;4.27;3.00;;;25.80;42.50;;;;;;5029977;28;20246;-43
2022/07/28 05:40:51;;;;;;;4.67;3.67;;;25.70;42.60;;;;;;5027547;28;20479;-43
2022/07/28 05:43:17;;;;;;;3.77;3.30;;;25.60;42.60;;;;;;5026786;28;20493;-46
2022/07/28 05:45:43;;;;;;;6.20;3.70;;;25.60;42.80;;;;;;5028427;28;20440;-44
2022/07/28 05:48:08;;;;;;;4.23;3.73;;;25.60;43.10;;;;;;5028949;28;20555;-45
2022/07/28 05:50:34;;;;;;;4.33;3.93;;;25.60;43.10;;;;;;5026484;28;20232;-43
2022/07/28 05:53:00;;;;;;;4.90;3.40;;;25.50;43.10;;;;;;5026946;28;20205;-44
2022/07/28 05:55:25;;;;;;;3.80;3.20;;;25.60;43.20;;;;;;5022518;28;20651;-44
2022/07/28 05:57:52;;;;;;;2.90;2.70;;;25.60;43.20;;;;;;5025810;28;20263;-43
2022/07/28 06:00:20;;;;;;;3.60;3.40;;;25.70;43.40;;;;;;5028626;28;20227;-45
2022/07/28 06:02:48;;;;;;;3.60;2.90;;;25.70;43.10;;;;;;5022148;28;21069;-42
2022/07/28 06:05:18;;;;;;;3.73;3.23;;;25.70;43.30;;;;;;5026492;28;20497;-42
2022/07/28 06:07:48;;;;;;;6.80;3.70;;;25.70;43.30;;;;;;5028095;28;20467;-43
2022/07/28 06:10:16;;;;;;;5.10;2.95;;;25.80;43.40;;;;;;5056847;28;20423;-45
2022/07/28 06:12:47;;;;;;;7.40;3.13;;;25.80;43.20;;;;;;5026487;28;20202;-44
2022/07/28 06:15:15;;;;;;;3.77;3.47;;;25.60;43.80;;;;;;5025637;28;20448;-45
2022/07/28 06:17:41;;;;;;;3.40;3.10;;;25.50;44.20;;;;;;5028454;28;20435;-45
2022/07/28 06:20:08;;;;;;;3.90;3.37;;;25.60;44.20;;;;;;5026708;28;20444;-47
2022/07/28 06:23:00;;;;;;;3.40;3.10;;;25.60;44.20;;;;;;5033375;28;20876;-48
2022/07/28 06:25:28;;;;;;;4.30;3.07;;;25.60;44.40;;;;;;5031288;28;20826;-44
2022/07/28 06:27:59;;;;;;;7.30;3.43;;;25.60;44.70;;;;;;5032884;28;20431;-48
2022/07/28 06:30:25;;;;;;;4.43;3.40;;;25.60;44.90;;;;;;5033769;28;20444;-46
2022/07/28 06:32:51;;;;;;;5.13;3.37;;;25.60;45.40;;;;;;5025272;28;20822;-44
2022/07/28 06:35:18;;;;;;;4.90;3.43;;;25.50;44.80;;;;;;5030093;28;21007;-45
2022/07/28 06:37:48;;;;;;;3.23;2.90;;;25.50;44.80;;;;;;5030472;28;20471;-46
2022/07/28 06:40:15;;;;;;;4.00;3.13;;;25.50;45.00;;;;;;5031451;28;20455;-45
2022/07/28 06:42:42;;;;;;;3.40;3.13;;;25.50;44.90;;;;;;5033439;28;20588;-46
2022/07/28 06:45:09;;;;;;;3.50;3.20;;;25.50;45.10;;;;;;5026124;28;20444;-45
2022/07/28 06:47:35;;;;;;;6.13;3.20;;;25.50;44.80;;;;;;5037426;28;20431;-47
2022/07/28 06:50:01;;;;;;;3.80;3.40;;;25.60;44.60;;;;;;5032883;28;20451;-45
2022/07/28 06:52:27;;;;;;;5.10;3.63;;;25.60;44.80;;;;;;5031379;28;20424;-44
2022/07/28 06:54:53;;;;;;;5.37;3.80;;;25.60;44.50;;;;;;5031372;28;20443;-47
2022/07/28 06:57:20;;;;;;;4.73;4.20;;;25.60;44.60;;;;;;5035502;28;20205;-47
2022/07/28 06:59:49;;;;;;;9.50;4.00;;;25.70;44.60;;;;;;5040860;28;20204;-44
2022/07/28 07:02:16;;;;;;;3.30;3.10;;;25.80;44.60;;;;;;5033175;28;20491;-44
2022/07/28 07:04:42;;;;;;;4.20;3.80;;;25.80;44.50;;;;;;5031157;28;20458;-47
2022/07/28 07:07:07;;;;;;;6.03;3.97;;;25.90;44.80;;;;;;5033323;28;20444;-44
2022/07/28 07:09:34;;;;;;;4.67;4.17;;;25.80;45.00;;;;;;5032393;28;20200;-44
2022/07/28 07:11:59;;;;;;;4.40;4.10;;;25.90;45.00;;;;;;5031461;28;20538;-46
2022/07/28 07:14:25;;;;;;;4.30;3.90;;;25.90;44.80;;;;;;5031503;28;20467;-45
2022/07/28 07:16:51;;;;;;;4.90;4.40;;;25.90;45.50;;;;;;5032422;28;20336;-44
2022/07/28 07:19:16;;;;;;;7.20;5.30;;;25.90;46.10;;;;;;5033143;28;20200;-44
2022/07/28 07:21:42;;;;;;;5.30;4.80;;;26.00;45.30;;;;;;5032995;28;20221;-48
2022/07/28 07:24:10;;;;;;;5.40;4.87;;;26.30;45.00;;;;;;5033411;28;20220;-48
2022/07/28 07:26:36;;;;;;;4.87;4.47;;;26.40;44.90;;;;;;5030946;28;20205;-48
2022/07/28 07:29:02;;;;;;;4.90;4.50;;;26.30;44.90;;;;;;5034385;28;21106;-47
2022/07/28 07:31:28;;;;;;;5.20;4.70;;;26.20;45.00;;;;;;5035352;28;20796;-44
2022/07/28 07:33:53;;;;;;;5.20;4.70;;;26.10;45.50;;;;;;5034636;28;20451;-46
2022/07/28 07:36:19;;;;;;;7.17;4.20;;;25.80;46.00;;;;;;5039410;28;20232;-47
2022/07/28 07:38:44;;;;;;;5.03;4.50;;;25.60;46.40;;;;;;5025000;28;20248;-47
2022/07/28 07:41:11;;;;;;;8.20;4.50;;;25.60;46.40;;;;;;5031534;28;20239;-44
2022/07/28 07:43:36;;;;;;;5.53;4.63;;;25.70;46.50;;;;;;5032033;28;20197;-44
2022/07/28 07:46:02;;;;;;;6.17;4.80;;;26.10;45.60;;;;;;5023693;28;20443;-47
2022/07/28 07:48:28;;;;;;;4.80;4.50;;;26.30;45.40;;;;;;5030368;28;20688;-45
2022/07/28 07:50:53;;;;;;;6.57;4.77;;;26.40;45.20;;;;;;5031748;28;20198;-44
2022/07/28 07:53:19;;;;;;;5.70;5.17;;;26.70;44.60;;;;;;5029330;28;20280;-44
2022/07/28 07:55:44;;;;;;;6.67;5.00;;;27.10;44.30;;;;;;5034852;28;20276;-45
2022/07/28 07:58:10;;;;;;;5.20;4.60;;;27.40;43.50;;;;;;5040059;28;20235;-46
2022/07/28 08:00:36;;;;;;;5.30;4.90;;;27.50;43.80;;;;;;5031628;28;20219;-44
2022/07/28 08:03:01;;;;;;;5.77;5.20;;;27.70;43.80;;;;;;5031318;28;20221;-45
2022/07/28 08:05:27;;;;;;;4.70;4.30;;;27.90;43.50;;;;;;5030435;28;20676;-44
2022/07/28 08:07:53;;;;;;;5.83;5.33;;;28.10;43.00;;;;;;5028848;28;20193;-47
2022/07/28 08:10:18;;;;;;;5.77;4.50;;;28.20;43.00;;;;;;5029969;28;20217;-44
2022/07/28 08:12:44;;;;;;;6.80;5.37;;;28.40;43.30;;;;;;5027071;28;20556;-45
2022/07/28 08:15:10;;;;;;;5.90;5.30;;;28.60;42.80;;;;;;5028724;28;20205;-45
2022/07/28 08:17:36;;;;;;;6.10;5.50;;;28.70;42.30;;;;;;5028215;28;20193;-44
2022/07/28 08:20:03;;;;;;;5.87;4.97;;;28.80;42.00;;;;;;5031603;28;20454;-46
2022/07/28 08:22:28;;;;;;;5.53;5.13;;;29.00;41.60;;;;;;5025132;28;20233;-46
2022/07/28 08:24:54;;;;;;;6.13;4.97;;;29.10;42.00;;;;;;5026864;28;20799;-45
2022/07/28 08:27:20;;;;;;;5.50;5.10;;;29.20;41.70;;;;;;5029493;28;20200;-46
2022/07/28 08:29:45;;;;;;;5.53;5.03;;;29.40;41.40;;;;;;5027504;28;20649;-47
2022/07/28 08:32:12;;;;;;;5.93;5.30;;;29.50;41.30;;;;;;5031257;28;20644;-44
2022/07/28 08:34:37;;;;;;;5.50;5.10;;;29.70;41.00;;;;;;5031366;28;20189;-45
2022/07/28 08:37:04;;;;;;;6.43;5.57;;;29.80;40.70;;;;;;5028570;28;20476;-45
2022/07/28 08:39:31;;;;;;;5.83;5.27;;;29.90;40.80;;;;;;5030091;28;20200;-45
2022/07/28 08:42:04;;;;;;;5.40;5.00;;;29.70;40.80;;;;;;5030039;28;20583;-45
2022/07/28 08:44:38;;;;;;;5.80;5.20;;;29.50;41.20;;;;;;5028476;28;20523;-45
2022/07/28 08:47:09;;;;;;;6.03;5.43;;;29.50;41.60;;;;;;5027736;28;20443;-45
2022/07/28 08:49:43;;;;;;;7.77;5.53;;;29.10;42.00;;;;;;5027607;28;21073;-45
2022/07/28 08:52:11;;;;;;;7.03;6.10;;;28.80;42.60;;;;;;5032604;28;20431;-44
2022/07/28 08:54:41;;;;;;;5.53;5.03;;;28.70;42.80;;;;;;5037447;28;20440;-48
2022/07/28 08:57:10;;;;;;;7.97;5.60;;;28.90;42.80;;;;;;5027689;28;20442;-46
2022/07/28 08:59:37;;;;;;;5.70;5.10;;;29.30;42.30;;;;;;5030107;28;20444;-45
2022/07/28 09:02:03;;;;;;;6.13;5.63;;;29.60;41.90;;;;;;5030398;28;20594;-48
2022/07/28 09:04:31;;;;;;;5.53;5.03;;;29.70;41.30;;;;;;5036765;28;20534;-45
2022/07/28 09:06:57;;;;;;;7.90;5.97;;;29.80;41.10;;;;;;5030406;28;20512;-46
2022/07/28 09:09:23;;;;;;;6.50;4.80;;;29.90;41.00;;;;;;5027461;28;20535;-47
2022/07/28 09:11:48;;;;;;;5.40;4.90;;;29.90;40.90;;;;;;5028749;28;20201;-48
2022/07/28 09:14:14;;;;;;;6.80;6.07;;;29.90;40.80;;;;;;5029029;28;20225;-47
2022/07/28 09:16:40;;;;;;;5.00;4.60;;;29.90;40.70;;;;;;5027839;28;20253;-46
2022/07/28 09:19:05;;;;;;;5.40;4.97;;;30.10;40.70;;;;;;5024956;28;20252;-45
2022/07/28 09:21:31;;;;;;;5.83;5.13;;;29.90;40.30;;;;;;5029671;28;20705;-45
2022/07/28 09:23:57;;;;;;;4.93;4.63;;;30.00;40.60;;;;;;5031077;28;20216;-45
2022/07/28 09:26:23;;;;;;;5.27;4.87;;;30.00;40.10;;;;;;5027126;28;20205;-46
2022/07/28 09:28:50;;;;;;;5.50;4.93;;;29.80;40.90;;;;;;5029758;28;20442;-48
2022/07/28 09:31:16;;;;;;;5.87;4.80;;;30.10;40.60;;;;;;5028758;28;20200;-49
2022/07/28 09:33:55;;;;;;;5.87;5.47;;;30.50;39.70;;;;;;5027434;28;20539;-45
2022/07/28 09:36:21;;;;;;;7.40;4.70;;;31.10;38.90;;;;;;5028613;28;20515;-45
2022/07/28 09:38:47;;;;;;;5.07;4.60;;;31.60;38.40;;;;;;5028043;28;20452;-45
2022/07/28 09:41:13;;;;;;;6.40;5.27;;;31.30;37.90;;;;;;5029084;28;20906;-46
2022/07/28 09:43:42;;;;;;;5.50;5.00;;;31.50;38.00;;;;;;5028675;28;20707;-49
2022/07/28 09:46:16;;;;;;;5.97;5.47;;;31.40;38.10;;;;;;5027874;28;20455;-45
2022/07/28 09:48:47;;;;;;;5.20;4.73;;;31.50;38.60;;;;;;5033958;28;20447;-49
2022/07/28 09:51:15;;;;;;;5.63;5.13;;;31.60;38.10;;;;;;5025848;28;20480;-45
2022/07/28 09:53:42;;;;;;;5.50;5.00;;;31.90;37.60;;;;;;5025659;28;20539;-48
2022/07/28 09:56:09;;;;;;;5.53;5.07;;;31.70;37.50;;;;;;5028385;28;21401;-44
2022/07/28 09:58:35;;;;;;;5.30;4.80;;;31.50;38.00;;;;;;5032746;28;20539;-46
2022/07/28 10:01:12;;;;;;;5.30;4.80;;;31.80;37.20;;;;;;5030957;28;20448;-47
2022/07/28 10:03:42;;;;;;;7.33;5.13;;;32.20;36.70;;;;;;5025269;28;20448;-49
2022/07/28 10:06:14;;;;;;;4.43;4.13;;;32.10;37.20;;;;;;5033159;28;20811;-46
2022/07/28 10:08:48;;;;;;;4.70;4.40;;;32.30;36.60;;;;;;5032317;28;20432;-46
2022/07/28 10:11:15;;;;;;;5.93;5.43;;;32.70;36.10;;;;;;5029548;28;20443;-45
2022/07/28 10:14:05;;;;;;;5.77;5.23;;;32.80;35.60;;;;;;5034441;28;20461;-48
2022/07/28 10:16:33;;;;;;;6.33;4.90;;;32.60;36.20;;;;;;5032730;28;20454;-46
2022/07/28 10:19:01;;;;;;;4.57;4.27;;;33.00;35.90;;;;;;5031156;28;21030;-46
2022/07/28 10:21:29;;;;;;;5.03;4.53;;;33.30;35.00;;;;;;5029688;28;20830;-46
2022/07/28 10:23:58;;;;;;;6.03;5.33;;;33.30;34.80;;;;;;5030875;28;20443;-47
2022/07/28 10:26:32;;;;;;;5.07;4.67;;;32.70;35.30;;;;;;5030882;28;20436;-49
2022/07/28 10:29:02;;;;;;;5.57;5.07;;;32.50;35.90;;;;;;5031650;28;20443;-49
2022/07/28 10:31:58;;;;;;;8.03;5.43;;;33.00;35.40;;;;;;5032432;28;20451;-47
2022/07/28 10:34:47;;;;;;;6.63;5.77;;;33.20;35.30;;;;;;5029087;28;20455;-49
2022/07/28 10:37:19;;;;;;;5.60;4.60;;;33.60;34.60;;;;;;5028809;28;20475;-49
2022/07/28 10:39:53;;;;;;;5.47;5.07;;;32.80;35.20;;;;;;5028648;28;20464;-48
2022/07/28 10:42:19;;;;;;;5.07;4.70;;;32.80;35.40;;;;;;5030201;28;21005;-45
2022/07/28 10:44:46;;;;;;;4.70;4.30;;;33.00;35.10;;;;;;5029208;28;20444;-49
2022/07/28 10:47:13;;;;;;;4.47;4.17;;;33.20;34.90;;;;;;5029383;28;20441;-45
2022/07/28 10:49:41;;;;;;;5.60;5.10;;;33.40;34.40;;;;;;5031424;28;20947;-47
2022/07/28 10:52:08;;;;;;;4.97;4.30;;;33.70;34.00;;;;;;5031843;28;21497;-45
2022/07/28 10:54:43;;;;;;;5.27;4.80;;;33.90;33.80;;;;;;5032497;28;20476;-46
2022/07/28 10:57:11;;;;;;;5.30;4.90;;;34.30;33.30;;;;;;5029762;28;20439;-46
2022/07/28 11:00:07;;;;;;;5.80;5.30;;;34.50;32.60;;;;;;5034104;28;20432;-46
2022/07/28 11:02:46;;;;;;;5.17;4.70;;;34.60;32.40;;;;;;5033249;28;20582;-49
2022/07/28 11:05:40;;;;;;;9.07;5.20;;;34.60;32.50;;;;;;5029687;28;20470;-49
2022/07/28 11:08:26;;;;;;;7.37;5.17;;;34.70;32.10;;;;;;5033379;28;20471;-46
2022/07/28 11:10:53;;;;;;;5.40;4.90;;;34.60;32.20;;;;;;5024963;28;20510;-48
2022/07/28 11:13:27;;;;;;;5.87;5.33;;;34.50;32.20;;;;;;5030666;28;20964;-50
2022/07/28 11:15:54;;;;;;;5.17;4.77;;;34.10;32.30;;;;;;5029738;28;20474;-46
2022/07/28 11:18:20;;;;;;;5.70;5.20;;;34.10;32.60;;;;;;5034248;28;20475;-46
2022/07/28 11:20:52;;;;;;;4.53;4.23;;;34.40;32.70;;;;;;5033041;28;20471;-47
2022/07/28 11:23:37;;;;;;;5.70;5.30;;;34.90;32.10;;;;;;5031911;28;20704;-47
2022/07/28 11:26:21;;;;;;;5.83;5.33;;;35.40;31.60;;;;;;5030305;28;20452;-48
2022/07/28 11:28:59;;;;;;;5.30;4.73;;;35.10;30.90;;;;;;5031965;28;20552;-48
2022/07/28 11:31:43;;;;;;;5.80;4.67;;;34.60;31.40;;;;;;5032307;28;20478;-47
2022/07/28 11:34:48;;;;;;;5.13;4.63;;;35.00;31.40;;;;;;5024663;28;20444;-49
2022/07/28 11:37:14;;;;;;;4.80;4.50;;;35.20;30.90;;;;;;5023502;28;20467;-47
2022/07/28 11:39:41;;;;;;;9.03;4.57;;;35.00;30.80;;;;;;5024889;28;20497;-47
2022/07/28 11:42:31;;;;;;;5.50;5.10;;;35.50;30.50;;;;;;5030570;28;20634;-50
2022/07/28 11:45:23;;;;;;;6.77;4.90;;;36.00;30.00;;;;;;5026162;28;20538;-47
2022/07/28 11:48:20;;;;;;;4.97;4.57;;;36.20;29.40;;;;;;5029876;28;20467;-46
2022/07/28 11:51:04;;;;;;;5.70;5.30;;;36.10;29.20;;;;;;5033633;28;20550;-49
2022/07/28 11:53:42;;;;;;;5.40;4.90;;;35.90;29.40;;;;;;5030091;28;20452;-43
2022/07/28 11:56:14;;;;;;;11.50;5.07;;;35.60;29.40;;;;;;5023431;28;20447;-46
2022/07/28 11:58:41;;;;;;;4.60;4.30;;;35.40;29.50;;;;;;5022473;28;20450;-47
2022/07/28 12:01:18;;;;;;;5.40;4.23;;;35.10;29.80;;;;;;5023408;28;20810;-47
2022/07/28 12:03:47;;;;;;;4.90;4.37;;;34.60;29.80;;;;;;5033701;28;20440;-46
2022/07/28 12:06:14;;;;;;;5.97;4.40;;;34.60;30.10;;;;;;5030766;28;20942;-44
2022/07/28 12:08:52;;;;;;;4.80;4.40;;;34.80;30.00;;;;;;5024079;28;20555;-47
2022/07/28 12:11:18;;;;;;;4.27;4.03;;;34.90;29.80;;;;;;5027006;28;21176;-45
2022/07/28 12:13:45;;;;;;;5.20;4.40;;;35.00;29.40;;;;;;5025506;28;20578;-47
2022/07/28 12:16:11;;;;;;;4.80;4.40;;;35.20;29.30;;;;;;5030306;28;20455;-47
2022/07/28 12:18:37;;;;;;;6.30;4.07;;;35.50;28.90;;;;;;5031389;28;20448;-44
2022/07/28 12:21:03;;;;;;;4.63;4.27;;;36.00;28.60;;;;;;5028629;28;20442;-47
2022/07/28 12:23:36;;;;;;;4.67;4.27;;;36.10;27.70;;;;;;5029118;28;20655;-46
2022/07/28 12:26:03;;;;;;;5.17;4.33;;;35.70;28.20;;;;;;5026316;28;20197;-47
2022/07/28 12:28:31;;;;;;;4.40;4.00;;;34.90;28.60;;;;;;5026649;28;20496;-46
2022/07/28 12:31:13;;;;;;;4.33;3.93;;;35.10;28.80;;;;;;5031468;28;20458;-46
2022/07/28 12:33:39;;;;;;;7.10;4.40;;;35.90;28.70;;;;;;5024542;28;20450;-45
2022/07/28 12:36:06;;;;;;;4.83;3.60;;;36.40;27.50;;;;;;5029189;28;22124;-45
2022/07/28 12:38:32;;;;;;;3.60;3.30;;;36.30;27.40;;;;;;5022477;28;20551;-47
2022/07/28 12:40:58;;;;;;;4.00;3.70;;;36.20;27.10;;;;;;5018586;28;20443;-44
2022/07/28 12:43:28;;;;;;;4.03;3.83;;;35.90;27.90;;;;;;5029651;28;20493;-47
2022/07/28 12:45:54;;;;;;;4.80;4.30;;;36.10;27.90;;;;;;5014578;28;20194;-45
2022/07/28 12:48:20;;;;;;;4.83;4.33;;;36.40;27.50;;;;;;5024811;28;20577;-47
2022/07/28 12:50:47;;;;;;;4.30;4.00;;;36.10;27.50;;;;;;5023822;28;20512;-45
2022/07/28 12:53:13;;;;;;;4.33;4.00;;;36.30;27.30;;;;;;5025607;28;20439;-47
2022/07/28 12:55:42;;;;;;;4.17;3.90;;;36.20;27.30;;;;;;5021251;28;21603;-45
2022/07/28 12:58:21;;;;;;;4.40;4.00;;;35.60;27.90;;;;;;5023010;28;20478;-46